sensor_id;sensor_type;location;lat;lon;timestamp;P1;durP1;ratioP1;P2;durP2;ratioP2
64842;SDS011;51310;52.198;5.422;2022-09-03T00:00:16;2.92;;;1.50;;
64842;SDS011;51310;52.198;5.422;2022-09-03T00:06:17;3.17;;;1.30;;
64842;SDS011;51310;52.198;5.422;2022-09-03T00:08:56;3.88;;;1.60;;
64842;SDS011;51310;52.198;5.422;2022-09-03T00:14:40;9.10;;;1.60;;
64842;SDS011;51310;52.198;5.422;2022-09-03T00:17:29;4.05;;;1.10;;
64842;SDS011;51310;52.198;5.422;2022-09-03T00:20:19;4.35;;;1.55;;
64842;SDS011;51310;52.198;5.422;2022-09-03T00:23:04;4.18;;;1.55;;
64842;SDS011;51310;52.198;5.422;2022-09-03T00:31:36;3.80;;;1.67;;
64842;SDS011;51310;52.198;5.422;2022-09-03T00:37:03;10.25;;;2.10;;
64842;SDS011;51310;52.198;5.422;2022-09-03T00:39:29;6.45;;;1.67;;
64842;SDS011;51310;52.198;5.422;2022-09-03T00:46:00;3.40;;;1.55;;
64842;SDS011;51310;52.198;5.422;2022-09-03T00:48:21;2.92;;;1.25;;
64842;SDS011;51310;52.198;5.422;2022-09-03T00:57:29;5.07;;;1.80;;
64842;SDS011;51310;52.198;5.422;2022-09-03T01:00:33;9.43;;;1.63;;
64842;SDS011;51310;52.198;5.422;2022-09-03T01:03:03;6.85;;;2.00;;
64842;SDS011;51310;52.198;5.422;2022-09-03T01:21:04;4.80;;;1.67;;
64842;SDS011;51310;52.198;5.422;2022-09-03T01:27:20;3.72;;;1.30;;
64842;SDS011;51310;52.198;5.422;2022-09-03T01:30:14;1.58;;;1.20;;
64842;SDS011;51310;52.198;5.422;2022-09-03T01:32:50;3.08;;;1.63;;
64842;SDS011;51310;52.198;5.422;2022-09-03T01:38:45;2.17;;;1.30;;
64842;SDS011;51310;52.198;5.422;2022-09-03T01:41:28;8.30;;;1.75;;
64842;SDS011;51310;52.198;5.422;2022-09-03T01:44:35;3.30;;;1.40;;
64842;SDS011;51310;52.198;5.422;2022-09-03T01:47:55;5.78;;;1.63;;
64842;SDS011;51310;52.198;5.422;2022-09-03T01:54:15;2.92;;;1.73;;
64842;SDS011;51310;52.198;5.422;2022-09-03T02:00:23;3.60;;;1.40;;
64842;SDS011;51310;52.198;5.422;2022-09-03T02:02:52;2.25;;;1.35;;
64842;SDS011;51310;52.198;5.422;2022-09-03T02:05:19;3.95;;;1.48;;
64842;SDS011;51310;52.198;5.422;2022-09-03T02:08:02;3.13;;;1.42;;
64842;SDS011;51310;52.198;5.422;2022-09-03T02:10:49;3.50;;;1.48;;
64842;SDS011;51310;52.198;5.422;2022-09-03T02:13:25;4.38;;;1.60;;
64842;SDS011;51310;52.198;5.422;2022-09-03T02:16:03;2.58;;;1.20;;
64842;SDS011;51310;52.198;5.422;2022-09-03T02:18:57;2.63;;;1.33;;
64842;SDS011;51310;52.198;5.422;2022-09-03T02:21:36;5.30;;;1.70;;
64842;SDS011;51310;52.198;5.422;2022-09-03T02:24:10;4.37;;;1.40;;
64842;SDS011;51310;52.198;5.422;2022-09-03T02:26:36;4.47;;;1.70;;
64842;SDS011;51310;52.198;5.422;2022-09-03T02:29:02;5.50;;;1.50;;
64842;SDS011;51310;52.198;5.422;2022-09-03T02:31:28;4.90;;;1.63;;
64842;SDS011;51310;52.198;5.422;2022-09-03T02:33:55;2.20;;;1.17;;
64842;SDS011;51310;52.198;5.422;2022-09-03T02:36:29;2.58;;;1.25;;
64842;SDS011;51310;52.198;5.422;2022-09-03T02:39:03;2.85;;;1.40;;
64842;SDS011;51310;52.198;5.422;2022-09-03T02:41:31;5.53;;;1.40;;
64842;SDS011;51310;52.198;5.422;2022-09-03T02:46:49;3.25;;;1.45;;
64842;SDS011;51310;52.198;5.422;2022-09-03T02:49:27;5.38;;;1.50;;
64842;SDS011;51310;52.198;5.422;2022-09-03T02:51:59;3.85;;;1.30;;
64842;SDS011;51310;52.198;5.422;2022-09-03T02:54:33;3.47;;;1.50;;
64842;SDS011;51310;52.198;5.422;2022-09-03T02:57:04;4.35;;;1.50;;
64842;SDS011;51310;52.198;5.422;2022-09-03T02:59:33;2.22;;;1.42;;
64842;SDS011;51310;52.198;5.422;2022-09-03T03:01:59;4.55;;;1.65;;
64842;SDS011;51310;52.198;5.422;2022-09-03T03:04:27;3.78;;;1.65;;
64842;SDS011;51310;52.198;5.422;2022-09-03T03:06:55;3.25;;;1.17;;
64842;SDS011;51310;52.198;5.422;2022-09-03T03:09:21;3.03;;;1.40;;
64842;SDS011;51310;52.198;5.422;2022-09-03T03:11:46;3.75;;;1.38;;
64842;SDS011;51310;52.198;5.422;2022-09-03T03:14:14;3.95;;;1.40;;
64842;SDS011;51310;52.198;5.422;2022-09-03T03:16:42;5.45;;;1.50;;
64842;SDS011;51310;52.198;5.422;2022-09-03T03:19:08;3.30;;;1.20;;
64842;SDS011;51310;52.198;5.422;2022-09-03T03:21:34;5.15;;;1.50;;
64842;SDS011;51310;52.198;5.422;2022-09-03T03:24:01;4.30;;;1.60;;
64842;SDS011;51310;52.198;5.422;2022-09-03T03:26:27;6.13;;;1.58;;
64842;SDS011;51310;52.198;5.422;2022-09-03T03:28:57;4.45;;;1.67;;
64842;SDS011;51310;52.198;5.422;2022-09-03T03:31:25;2.55;;;1.52;;
64842;SDS011;51310;52.198;5.422;2022-09-03T03:33:52;2.80;;;1.40;;
64842;SDS011;51310;52.198;5.422;2022-09-03T03:36:26;4.77;;;1.53;;
64842;SDS011;51310;52.198;5.422;2022-09-03T03:38:57;2.90;;;1.30;;
64842;SDS011;51310;52.198;5.422;2022-09-03T03:41:28;4.47;;;1.50;;
64842;SDS011;51310;52.198;5.422;2022-09-03T03:44:02;3.40;;;1.33;;
64842;SDS011;51310;52.198;5.422;2022-09-03T03:46:35;4.88;;;1.40;;
64842;SDS011;51310;52.198;5.422;2022-09-03T03:49:05;6.57;;;2.03;;
64842;SDS011;51310;52.198;5.422;2022-09-03T03:51:33;3.30;;;1.30;;
64842;SDS011;51310;52.198;5.422;2022-09-03T03:54:01;3.45;;;1.48;;
64842;SDS011;51310;52.198;5.422;2022-09-03T03:56:27;2.97;;;1.47;;
64842;SDS011;51310;52.198;5.422;2022-09-03T03:58:53;3.20;;;1.40;;
64842;SDS011;51310;52.198;5.422;2022-09-03T04:01:20;4.70;;;1.60;;
64842;SDS011;51310;52.198;5.422;2022-09-03T04:03:50;3.88;;;1.60;;
64842;SDS011;51310;52.198;5.422;2022-09-03T04:06:19;4.70;;;2.37;;
64842;SDS011;51310;52.198;5.422;2022-09-03T04:08:46;3.13;;;1.60;;
64842;SDS011;51310;52.198;5.422;2022-09-03T04:11:15;6.20;;;1.70;;
64842;SDS011;51310;52.198;5.422;2022-09-03T04:13:45;6.10;;;1.70;;
64842;SDS011;51310;52.198;5.422;2022-09-03T04:16:13;3.40;;;1.55;;
64842;SDS011;51310;52.198;5.422;2022-09-03T04:18:44;3.85;;;1.23;;
64842;SDS011;51310;52.198;5.422;2022-09-03T04:21:14;3.88;;;1.60;;
64842;SDS011;51310;52.198;5.422;2022-09-03T04:23:45;3.00;;;1.35;;
64842;SDS011;51310;52.198;5.422;2022-09-03T04:26:14;3.75;;;1.40;;
64842;SDS011;51310;52.198;5.422;2022-09-03T04:28:49;4.40;;;1.90;;
64842;SDS011;51310;52.198;5.422;2022-09-03T04:31:15;4.90;;;1.27;;
64842;SDS011;51310;52.198;5.422;2022-09-03T04:33:44;3.95;;;1.50;;
64842;SDS011;51310;52.198;5.422;2022-09-03T04:36:11;2.93;;;1.40;;
64842;SDS011;51310;52.198;5.422;2022-09-03T04:38:41;7.80;;;1.42;;
64842;SDS011;51310;52.198;5.422;2022-09-03T04:41:10;4.45;;;1.50;;
64842;SDS011;51310;52.198;5.422;2022-09-03T04:43:41;2.70;;;1.20;;
64842;SDS011;51310;52.198;5.422;2022-09-03T04:46:08;3.10;;;1.52;;
64842;SDS011;51310;52.198;5.422;2022-09-03T04:48:37;3.50;;;1.40;;
64842;SDS011;51310;52.198;5.422;2022-09-03T04:51:08;2.80;;;1.38;;
64842;SDS011;51310;52.198;5.422;2022-09-03T04:53:40;4.53;;;1.30;;
64842;SDS011;51310;52.198;5.422;2022-09-03T04:58:43;3.38;;;1.45;;
64842;SDS011;51310;52.198;5.422;2022-09-03T05:01:11;3.00;;;1.27;;
64842;SDS011;51310;52.198;5.422;2022-09-03T05:03:45;5.13;;;1.75;;
64842;SDS011;51310;52.198;5.422;2022-09-03T05:06:11;3.00;;;1.17;;
64842;SDS011;51310;52.198;5.422;2022-09-03T05:08:40;3.65;;;1.63;;
64842;SDS011;51310;52.198;5.422;2022-09-03T05:11:07;3.10;;;1.65;;
64842;SDS011;51310;52.198;5.422;2022-09-03T05:13:34;5.95;;;1.63;;
64842;SDS011;51310;52.198;5.422;2022-09-03T05:16:05;4.00;;;1.48;;
64842;SDS011;51310;52.198;5.422;2022-09-03T05:18:36;6.60;;;1.70;;
64842;SDS011;51310;52.198;5.422;2022-09-03T05:21:04;5.55;;;2.08;;
64842;SDS011;51310;52.198;5.422;2022-09-03T05:23:35;2.50;;;1.60;;
64842;SDS011;51310;52.198;5.422;2022-09-03T05:26:07;3.88;;;1.38;;
64842;SDS011;51310;52.198;5.422;2022-09-03T05:29:02;2.25;;;1.30;;
64842;SDS011;51310;52.198;5.422;2022-09-03T05:31:34;2.70;;;1.40;;
64842;SDS011;51310;52.198;5.422;2022-09-03T05:34:03;3.22;;;1.38;;
64842;SDS011;51310;52.198;5.422;2022-09-03T05:36:31;3.20;;;1.52;;
64842;SDS011;51310;52.198;5.422;2022-09-03T05:39:01;2.72;;;1.50;;
64842;SDS011;51310;52.198;5.422;2022-09-03T05:41:30;7.40;;;1.73;;
64842;SDS011;51310;52.198;5.422;2022-09-03T05:43:58;3.30;;;1.45;;
64842;SDS011;51310;52.198;5.422;2022-09-03T05:46:28;6.15;;;1.65;;
64842;SDS011;51310;52.198;5.422;2022-09-03T05:48:57;4.32;;;1.60;;
64842;SDS011;51310;52.198;5.422;2022-09-03T05:51:26;6.07;;;2.15;;
64842;SDS011;51310;52.198;5.422;2022-09-03T05:53:53;4.28;;;1.27;;
64842;SDS011;51310;52.198;5.422;2022-09-03T05:56:20;3.00;;;1.40;;
64842;SDS011;51310;52.198;5.422;2022-09-03T05:58:50;3.53;;;1.70;;
64842;SDS011;51310;52.198;5.422;2022-09-03T06:01:21;7.05;;;1.80;;
64842;SDS011;51310;52.198;5.422;2022-09-03T06:03:58;3.92;;;1.58;;
64842;SDS011;51310;52.198;5.422;2022-09-03T06:06:50;8.90;;;1.40;;
64842;SDS011;51310;52.198;5.422;2022-09-03T06:09:17;6.32;;;1.95;;
64842;SDS011;51310;52.198;5.422;2022-09-03T06:11:46;4.73;;;1.57;;
64842;SDS011;51310;52.198;5.422;2022-09-03T06:14:15;3.67;;;1.17;;
64842;SDS011;51310;52.198;5.422;2022-09-03T06:16:43;3.97;;;1.35;;
64842;SDS011;51310;52.198;5.422;2022-09-03T06:19:16;3.03;;;1.27;;
64842;SDS011;51310;52.198;5.422;2022-09-03T06:21:44;3.15;;;1.27;;
64842;SDS011;51310;52.198;5.422;2022-09-03T06:24:18;4.80;;;1.30;;
64842;SDS011;51310;52.198;5.422;2022-09-03T06:26:47;5.80;;;1.25;;
64842;SDS011;51310;52.198;5.422;2022-09-03T06:29:13;2.35;;;1.45;;
64842;SDS011;51310;52.198;5.422;2022-09-03T06:31:39;4.63;;;1.35;;
64842;SDS011;51310;52.198;5.422;2022-09-03T06:34:05;8.07;;;2.10;;
64842;SDS011;51310;52.198;5.422;2022-09-03T06:36:31;3.90;;;1.42;;
64842;SDS011;51310;52.198;5.422;2022-09-03T06:38:57;2.75;;;1.20;;
64842;SDS011;51310;52.198;5.422;2022-09-03T06:41:28;3.83;;;1.42;;
64842;SDS011;51310;52.198;5.422;2022-09-03T06:44:03;2.70;;;1.58;;
64842;SDS011;51310;52.198;5.422;2022-09-03T06:46:35;5.83;;;1.50;;
64842;SDS011;51310;52.198;5.422;2022-09-03T06:49:06;3.13;;;1.40;;
64842;SDS011;51310;52.198;5.422;2022-09-03T06:51:32;3.72;;;1.75;;
64842;SDS011;51310;52.198;5.422;2022-09-03T06:54:03;5.17;;;1.70;;
64842;SDS011;51310;52.198;5.422;2022-09-03T06:56:33;7.05;;;1.40;;
64842;SDS011;51310;52.198;5.422;2022-09-03T06:59:04;4.32;;;1.52;;
64842;SDS011;51310;52.198;5.422;2022-09-03T07:01:36;6.20;;;1.38;;
64842;SDS011;51310;52.198;5.422;2022-09-03T07:04:04;3.38;;;1.58;;
64842;SDS011;51310;52.198;5.422;2022-09-03T07:06:34;3.30;;;1.58;;
64842;SDS011;51310;52.198;5.422;2022-09-03T07:09:07;3.53;;;1.50;;
64842;SDS011;51310;52.198;5.422;2022-09-03T07:11:35;2.73;;;1.50;;
64842;SDS011;51310;52.198;5.422;2022-09-03T07:14:09;5.32;;;1.25;;
64842;SDS011;51310;52.198;5.422;2022-09-03T07:16:35;3.40;;;1.45;;
64842;SDS011;51310;52.198;5.422;2022-09-03T07:19:02;2.83;;;1.40;;
64842;SDS011;51310;52.198;5.422;2022-09-03T07:21:30;4.00;;;1.63;;
64842;SDS011;51310;52.198;5.422;2022-09-03T07:24:00;6.50;;;1.98;;
64842;SDS011;51310;52.198;5.422;2022-09-03T07:26:29;3.63;;;1.55;;
64842;SDS011;51310;52.198;5.422;2022-09-03T07:28:59;4.13;;;1.48;;
64842;SDS011;51310;52.198;5.422;2022-09-03T07:31:27;2.28;;;1.42;;
64842;SDS011;51310;52.198;5.422;2022-09-03T07:33:59;3.40;;;2.05;;
64842;SDS011;51310;52.198;5.422;2022-09-03T07:36:35;1.83;;;1.30;;
64842;SDS011;51310;52.198;5.422;2022-09-03T07:39:09;4.78;;;1.35;;
64842;SDS011;51310;52.198;5.422;2022-09-03T07:41:38;2.80;;;1.40;;
64842;SDS011;51310;52.198;5.422;2022-09-03T07:44:07;2.25;;;1.10;;
64842;SDS011;51310;52.198;5.422;2022-09-03T07:46:34;4.53;;;1.58;;
64842;SDS011;51310;52.198;5.422;2022-09-03T07:49:02;3.58;;;1.27;;
64842;SDS011;51310;52.198;5.422;2022-09-03T07:51:31;5.70;;;1.45;;
64842;SDS011;51310;52.198;5.422;2022-09-03T07:54:02;2.67;;;1.42;;
64842;SDS011;51310;52.198;5.422;2022-09-03T07:56:31;7.37;;;1.60;;
64842;SDS011;51310;52.198;5.422;2022-09-03T07:58:59;5.32;;;1.63;;
64842;SDS011;51310;52.198;5.422;2022-09-03T08:01:27;2.78;;;1.48;;
64842;SDS011;51310;52.198;5.422;2022-09-03T08:03:55;2.95;;;1.55;;
64842;SDS011;51310;52.198;5.422;2022-09-03T08:06:22;8.20;;;1.50;;
64842;SDS011;51310;52.198;5.422;2022-09-03T08:08:54;4.30;;;1.23;;
64842;SDS011;51310;52.198;5.422;2022-09-03T08:11:28;6.20;;;1.58;;
64842;SDS011;51310;52.198;5.422;2022-09-03T08:13:56;3.25;;;1.40;;
64842;SDS011;51310;52.198;5.422;2022-09-03T08:16:34;3.40;;;1.25;;
64842;SDS011;51310;52.198;5.422;2022-09-03T08:19:07;3.92;;;1.38;;
64842;SDS011;51310;52.198;5.422;2022-09-03T08:21:35;2.50;;;1.35;;
64842;SDS011;51310;52.198;5.422;2022-09-03T08:24:01;3.67;;;1.65;;
64842;SDS011;51310;52.198;5.422;2022-09-03T08:26:28;3.37;;;1.70;;
64842;SDS011;51310;52.198;5.422;2022-09-03T08:29:01;7.25;;;1.85;;
64842;SDS011;51310;52.198;5.422;2022-09-03T08:31:28;4.38;;;1.20;;
64842;SDS011;51310;52.198;5.422;2022-09-03T08:33:56;10.87;;;2.10;;
64842;SDS011;51310;52.198;5.422;2022-09-03T08:36:30;4.30;;;1.80;;
64842;SDS011;51310;52.198;5.422;2022-09-03T08:39:04;4.72;;;1.63;;
64842;SDS011;51310;52.198;5.422;2022-09-03T08:44:27;3.20;;;1.50;;
64842;SDS011;51310;52.198;5.422;2022-09-03T08:52:48;5.75;;;1.67;;
64842;SDS011;51310;52.198;5.422;2022-09-03T08:55:36;2.75;;;1.48;;
64842;SDS011;51310;52.198;5.422;2022-09-03T08:58:16;4.10;;;1.58;;
64842;SDS011;51310;52.198;5.422;2022-09-03T09:00:53;5.30;;;1.38;;
64842;SDS011;51310;52.198;5.422;2022-09-03T09:07:08;4.50;;;1.75;;
64842;SDS011;51310;52.198;5.422;2022-09-03T09:15:43;4.15;;;1.83;;
64842;SDS011;51310;52.198;5.422;2022-09-03T09:18:47;4.47;;;1.50;;
64842;SDS011;51310;52.198;5.422;2022-09-03T09:21:41;5.65;;;1.30;;
64842;SDS011;51310;52.198;5.422;2022-09-03T09:24:18;7.03;;;1.40;;
64842;SDS011;51310;52.198;5.422;2022-09-03T09:26:54;6.53;;;1.25;;
64842;SDS011;51310;52.198;5.422;2022-09-03T09:29:26;4.07;;;1.48;;
64842;SDS011;51310;52.198;5.422;2022-09-03T09:32:01;2.87;;;1.10;;
64842;SDS011;51310;52.198;5.422;2022-09-03T09:34:32;4.03;;;1.30;;
64842;SDS011;51310;52.198;5.422;2022-09-03T09:37:01;5.57;;;1.35;;
64842;SDS011;51310;52.198;5.422;2022-09-03T09:39:34;2.75;;;1.50;;
64842;SDS011;51310;52.198;5.422;2022-09-03T09:42:10;3.80;;;1.30;;
64842;SDS011;51310;52.198;5.422;2022-09-03T09:44:37;4.18;;;1.30;;
64842;SDS011;51310;52.198;5.422;2022-09-03T09:47:09;2.40;;;1.20;;
64842;SDS011;51310;52.198;5.422;2022-09-03T09:49:52;2.03;;;1.35;;
64842;SDS011;51310;52.198;5.422;2022-09-03T09:52:27;5.10;;;1.45;;
64842;SDS011;51310;52.198;5.422;2022-09-03T09:58:03;6.93;;;1.83;;
64842;SDS011;51310;52.198;5.422;2022-09-03T10:00:35;5.45;;;1.10;;
64842;SDS011;51310;52.198;5.422;2022-09-03T10:03:08;9.57;;;1.83;;
64842;SDS011;51310;52.198;5.422;2022-09-03T10:05:37;4.35;;;1.42;;
64842;SDS011;51310;52.198;5.422;2022-09-03T10:08:07;3.67;;;1.30;;
64842;SDS011;51310;52.198;5.422;2022-09-03T10:10:49;2.30;;;1.30;;
64842;SDS011;51310;52.198;5.422;2022-09-03T10:16:32;4.45;;;1.20;;
64842;SDS011;51310;52.198;5.422;2022-09-03T10:19:17;9.30;;;1.58;;
64842;SDS011;51310;52.198;5.422;2022-09-03T10:22:02;5.03;;;1.23;;
64842;SDS011;51310;52.198;5.422;2022-09-03T10:27:25;8.35;;;1.25;;
64842;SDS011;51310;52.198;5.422;2022-09-03T10:29:51;5.38;;;1.33;;
64842;SDS011;51310;52.198;5.422;2022-09-03T10:38:16;4.38;;;1.50;;
64842;SDS011;51310;52.198;5.422;2022-09-03T10:50:30;2.10;;;1.10;;
64842;SDS011;51310;52.198;5.422;2022-09-03T10:56:56;4.07;;;1.13;;
64842;SDS011;51310;52.198;5.422;2022-09-03T11:00:09;2.50;;;1.33;;
64842;SDS011;51310;52.198;5.422;2022-09-03T11:11:54;2.55;;;1.05;;
64842;SDS011;51310;52.198;5.422;2022-09-03T11:14:37;4.95;;;1.13;;
64842;SDS011;51310;52.198;5.422;2022-09-03T11:17:13;3.30;;;1.10;;
64842;SDS011;51310;52.198;5.422;2022-09-03T11:19:52;2.97;;;1.00;;
64842;SDS011;51310;52.198;5.422;2022-09-03T11:22:45;1.80;;;1.20;;
64842;SDS011;51310;52.198;5.422;2022-09-03T11:25:16;2.38;;;1.08;;
64842;SDS011;51310;52.198;5.422;2022-09-03T11:28:02;3.92;;;1.60;;
64842;SDS011;51310;52.198;5.422;2022-09-03T11:33:43;2.38;;;1.50;;
64842;SDS011;51310;52.198;5.422;2022-09-03T11:36:31;2.90;;;1.13;;
64842;SDS011;51310;52.198;5.422;2022-09-03T11:42:00;2.60;;;1.23;;
64842;SDS011;51310;52.198;5.422;2022-09-03T11:44:37;3.60;;;1.17;;
64842;SDS011;51310;52.198;5.422;2022-09-03T11:47:42;7.07;;;1.40;;
64842;SDS011;51310;52.198;5.422;2022-09-03T11:53:05;3.22;;;1.30;;
64842;SDS011;51310;52.198;5.422;2022-09-03T11:55:53;5.00;;;1.42;;
64842;SDS011;51310;52.198;5.422;2022-09-03T11:58:33;2.97;;;1.00;;
64842;SDS011;51310;52.198;5.422;2022-09-03T12:01:11;3.45;;;1.30;;
64842;SDS011;51310;52.198;5.422;2022-09-03T12:04:01;2.20;;;1.00;;
64842;SDS011;51310;52.198;5.422;2022-09-03T12:09:47;2.40;;;0.98;;
64842;SDS011;51310;52.198;5.422;2022-09-03T12:12:43;1.40;;;0.82;;
64842;SDS011;51310;52.198;5.422;2022-09-03T12:18:43;4.85;;;1.45;;
64842;SDS011;51310;52.198;5.422;2022-09-03T12:21:11;3.05;;;1.15;;
64842;SDS011;51310;52.198;5.422;2022-09-03T12:28:50;1.85;;;1.00;;
64842;SDS011;51310;52.198;5.422;2022-09-03T12:31:23;2.60;;;1.30;;
64842;SDS011;51310;52.198;5.422;2022-09-03T12:33:54;3.65;;;1.38;;
64842;SDS011;51310;52.198;5.422;2022-09-03T12:36:40;3.88;;;1.60;;
64842;SDS011;51310;52.198;5.422;2022-09-03T12:39:17;2.13;;;1.40;;
64842;SDS011;51310;52.198;5.422;2022-09-03T12:44:38;6.50;;;1.40;;
64842;SDS011;51310;52.198;5.422;2022-09-03T12:49:41;3.22;;;1.50;;
64842;SDS011;51310;52.198;5.422;2022-09-03T12:55:02;5.97;;;1.10;;
64842;SDS011;51310;52.198;5.422;2022-09-03T12:57:52;3.40;;;1.43;;
64842;SDS011;51310;52.198;5.422;2022-09-03T13:00:42;2.55;;;1.13;;
64842;SDS011;51310;52.198;5.422;2022-09-03T13:05:54;6.55;;;1.50;;
64842;SDS011;51310;52.198;5.422;2022-09-03T13:08:30;3.05;;;1.10;;
64842;SDS011;51310;52.198;5.422;2022-09-03T13:11:08;1.83;;;1.20;;
64842;SDS011;51310;52.198;5.422;2022-09-03T13:13:34;3.13;;;1.20;;
64842;SDS011;51310;52.198;5.422;2022-09-03T13:27:42;3.70;;;1.45;;
64842;SDS011;51310;52.198;5.422;2022-09-03T13:30:55;3.93;;;1.43;;
64842;SDS011;51310;52.198;5.422;2022-09-03T13:33:53;2.00;;;1.23;;
64842;SDS011;51310;52.198;5.422;2022-09-03T13:36:37;2.92;;;1.35;;
64842;SDS011;51310;52.198;5.422;2022-09-03T13:39:29;6.63;;;1.33;;
64842;SDS011;51310;52.198;5.422;2022-09-03T13:42:18;11.23;;;1.55;;
64842;SDS011;51310;52.198;5.422;2022-09-03T13:45:15;5.15;;;1.40;;
64842;SDS011;51310;52.198;5.422;2022-09-03T13:48:11;7.10;;;1.40;;
64842;SDS011;51310;52.198;5.422;2022-09-03T13:51:10;2.40;;;1.20;;
64842;SDS011;51310;52.198;5.422;2022-09-03T13:56:58;3.60;;;1.55;;
64842;SDS011;51310;52.198;5.422;2022-09-03T14:00:08;2.00;;;1.50;;
64842;SDS011;51310;52.198;5.422;2022-09-03T14:05:16;1.80;;;1.20;;
64842;SDS011;51310;52.198;5.422;2022-09-03T14:08:00;2.78;;;1.20;;
64842;SDS011;51310;52.198;5.422;2022-09-03T14:14:33;4.32;;;1.40;;
64842;SDS011;51310;52.198;5.422;2022-09-03T14:17:16;3.13;;;1.10;;
64842;SDS011;51310;52.198;5.422;2022-09-03T14:19:58;3.95;;;1.50;;
64842;SDS011;51310;52.198;5.422;2022-09-03T14:22:50;2.77;;;1.00;;
64842;SDS011;51310;52.198;5.422;2022-09-03T14:25:53;2.60;;;1.20;;
64842;SDS011;51310;52.198;5.422;2022-09-03T14:31:06;2.40;;;1.25;;
64842;SDS011;51310;52.198;5.422;2022-09-03T14:46:42;6.53;;;1.48;;
64842;SDS011;51310;52.198;5.422;2022-09-03T14:55:19;4.15;;;1.40;;
64842;SDS011;51310;52.198;5.422;2022-09-03T14:58:10;2.80;;;1.23;;
64842;SDS011;51310;52.198;5.422;2022-09-03T15:01:17;2.33;;;1.50;;
64842;SDS011;51310;52.198;5.422;2022-09-03T15:10:19;2.17;;;1.15;;
64842;SDS011;51310;52.198;5.422;2022-09-03T15:13:07;3.30;;;1.60;;
64842;SDS011;51310;52.198;5.422;2022-09-03T15:24:41;13.43;;;2.47;;
64842;SDS011;51310;52.198;5.422;2022-09-03T15:30:40;1.90;;;1.25;;
64842;SDS011;51310;52.198;5.422;2022-09-03T15:33:39;3.58;;;1.88;;
64842;SDS011;51310;52.198;5.422;2022-09-03T15:36:48;2.80;;;1.35;;
64842;SDS011;51310;52.198;5.422;2022-09-03T15:39:19;2.88;;;1.50;;
64842;SDS011;51310;52.198;5.422;2022-09-03T15:42:00;4.40;;;1.60;;
64842;SDS011;51310;52.198;5.422;2022-09-03T15:44:41;3.80;;;1.50;;
64842;SDS011;51310;52.198;5.422;2022-09-03T15:47:30;3.22;;;1.50;;
64842;SDS011;51310;52.198;5.422;2022-09-03T15:53:20;5.20;;;1.67;;
64842;SDS011;51310;52.198;5.422;2022-09-03T15:59:17;2.35;;;1.50;;
64842;SDS011;51310;52.198;5.422;2022-09-03T16:02:17;5.00;;;1.85;;
64842;SDS011;51310;52.198;5.422;2022-09-03T16:12:39;3.53;;;1.60;;
64842;SDS011;51310;52.198;5.422;2022-09-03T16:21:11;10.30;;;1.90;;
64842;SDS011;51310;52.198;5.422;2022-09-03T16:23:53;2.60;;;1.40;;
64842;SDS011;51310;52.198;5.422;2022-09-03T16:30:00;3.55;;;1.70;;
64842;SDS011;51310;52.198;5.422;2022-09-03T16:41:41;2.30;;;1.25;;
64842;SDS011;51310;52.198;5.422;2022-09-03T16:45:02;4.57;;;1.77;;
64842;SDS011;51310;52.198;5.422;2022-09-03T16:51:09;3.33;;;1.38;;
64842;SDS011;51310;52.198;5.422;2022-09-03T16:54:26;4.70;;;1.77;;
64842;SDS011;51310;52.198;5.422;2022-09-03T17:00:35;3.25;;;1.88;;
64842;SDS011;51310;52.198;5.422;2022-09-03T17:16:25;3.70;;;1.73;;
64842;SDS011;51310;52.198;5.422;2022-09-03T17:25:00;4.90;;;1.80;;
64842;SDS011;51310;52.198;5.422;2022-09-03T17:34:13;4.05;;;1.80;;
64842;SDS011;51310;52.198;5.422;2022-09-03T17:40:08;3.28;;;1.33;;
64842;SDS011;51310;52.198;5.422;2022-09-03T17:49:05;5.03;;;1.73;;
64842;SDS011;51310;52.198;5.422;2022-09-03T17:51:48;8.00;;;1.67;;
64842;SDS011;51310;52.198;5.422;2022-09-03T17:54:39;2.55;;;1.45;;
64842;SDS011;51310;52.198;5.422;2022-09-03T17:59:58;7.18;;;1.90;;
64842;SDS011;51310;52.198;5.422;2022-09-03T18:02:31;4.55;;;1.80;;
64842;SDS011;51310;52.198;5.422;2022-09-03T18:05:23;5.90;;;1.67;;
64842;SDS011;51310;52.198;5.422;2022-09-03T18:11:49;4.18;;;1.90;;
64842;SDS011;51310;52.198;5.422;2022-09-03T18:14:49;7.05;;;2.00;;
64842;SDS011;51310;52.198;5.422;2022-09-03T18:17:40;8.95;;;2.55;;
64842;SDS011;51310;52.198;5.422;2022-09-03T18:20:19;9.95;;;1.98;;
64842;SDS011;51310;52.198;5.422;2022-09-03T18:23:09;17.97;;;3.13;;
64842;SDS011;51310;52.198;5.422;2022-09-03T18:26:30;22.00;;;3.90;;
64842;SDS011;51310;52.198;5.422;2022-09-03T18:29:30;7.63;;;2.28;;
64842;SDS011;51310;52.198;5.422;2022-09-03T18:32:22;14.05;;;2.63;;
64842;SDS011;51310;52.198;5.422;2022-09-03T18:35:07;12.80;;;2.27;;
64842;SDS011;51310;52.198;5.422;2022-09-03T18:37:52;10.70;;;2.90;;
64842;SDS011;51310;52.198;5.422;2022-09-03T18:51:19;6.93;;;2.55;;
64842;SDS011;51310;52.198;5.422;2022-09-03T18:58:28;5.45;;;2.38;;
64842;SDS011;51310;52.198;5.422;2022-09-03T19:01:33;5.85;;;3.03;;
64842;SDS011;51310;52.198;5.422;2022-09-03T19:14:16;9.50;;;2.50;;
64842;SDS011;51310;52.198;5.422;2022-09-03T19:24:05;5.93;;;2.65;;
64842;SDS011;51310;52.198;5.422;2022-09-03T19:27:03;6.88;;;2.47;;
64842;SDS011;51310;52.198;5.422;2022-09-03T19:30:24;6.32;;;2.58;;
64842;SDS011;51310;52.198;5.422;2022-09-03T19:33:45;7.33;;;2.67;;
64842;SDS011;51310;52.198;5.422;2022-09-03T19:37:05;7.70;;;3.08;;
64842;SDS011;51310;52.198;5.422;2022-09-03T19:47:09;9.95;;;2.42;;
64842;SDS011;51310;52.198;5.422;2022-09-03T19:50:19;5.55;;;2.30;;
64842;SDS011;51310;52.198;5.422;2022-09-03T19:53:11;4.75;;;2.50;;
64842;SDS011;51310;52.198;5.422;2022-09-03T19:56:02;6.70;;;2.88;;
64842;SDS011;51310;52.198;5.422;2022-09-03T19:58:59;6.90;;;2.30;;
64842;SDS011;51310;52.198;5.422;2022-09-03T20:01:55;8.27;;;4.80;;
64842;SDS011;51310;52.198;5.422;2022-09-03T20:04:46;5.72;;;3.47;;
64842;SDS011;51310;52.198;5.422;2022-09-03T20:07:48;9.00;;;3.95;;
64842;SDS011;51310;52.198;5.422;2022-09-03T20:10:37;6.35;;;3.80;;
64842;SDS011;51310;52.198;5.422;2022-09-03T20:13:08;8.40;;;3.58;;
64842;SDS011;51310;52.198;5.422;2022-09-03T20:15:45;5.07;;;3.05;;
64842;SDS011;51310;52.198;5.422;2022-09-03T20:19:00;3.38;;;2.42;;
64842;SDS011;51310;52.198;5.422;2022-09-03T20:25:34;5.93;;;2.50;;
64842;SDS011;51310;52.198;5.422;2022-09-03T20:37:30;7.40;;;2.65;;
64842;SDS011;51310;52.198;5.422;2022-09-03T20:43:16;3.97;;;2.45;;
64842;SDS011;51310;52.198;5.422;2022-09-03T20:52:14;4.68;;;2.47;;
64842;SDS011;51310;52.198;5.422;2022-09-03T20:57:40;6.10;;;2.70;;
64842;SDS011;51310;52.198;5.422;2022-09-03T21:00:38;5.10;;;2.70;;
64842;SDS011;51310;52.198;5.422;2022-09-03T21:03:31;4.43;;;2.40;;
64842;SDS011;51310;52.198;5.422;2022-09-03T21:15:15;6.00;;;2.70;;
64842;SDS011;51310;52.198;5.422;2022-09-03T21:18:22;9.70;;;2.53;;
64842;SDS011;51310;52.198;5.422;2022-09-03T21:24:19;8.38;;;7.03;;
64842;SDS011;51310;52.198;5.422;2022-09-03T21:27:03;9.88;;;6.40;;
64842;SDS011;51310;52.198;5.422;2022-09-03T21:30:07;8.15;;;3.88;;
64842;SDS011;51310;52.198;5.422;2022-09-03T21:35:29;4.45;;;2.80;;
64842;SDS011;51310;52.198;5.422;2022-09-03T21:38:07;3.97;;;2.92;;
64842;SDS011;51310;52.198;5.422;2022-09-03T21:40:53;5.00;;;3.00;;
64842;SDS011;51310;52.198;5.422;2022-09-03T21:43:42;4.05;;;2.72;;
64842;SDS011;51310;52.198;5.422;2022-09-03T21:46:22;4.60;;;2.90;;
64842;SDS011;51310;52.198;5.422;2022-09-03T21:49:00;6.57;;;3.10;;
64842;SDS011;51310;52.198;5.422;2022-09-03T21:51:51;4.20;;;2.93;;
64842;SDS011;51310;52.198;5.422;2022-09-03T21:54:29;4.40;;;2.60;;
64842;SDS011;51310;52.198;5.422;2022-09-03T22:00:16;5.82;;;3.70;;
64842;SDS011;51310;52.198;5.422;2022-09-03T22:02:56;5.93;;;3.40;;
64842;SDS011;51310;52.198;5.422;2022-09-03T22:05:24;6.18;;;3.20;;